Time;durP1;ratioP1;P1;durP2;ratioP2;P2;SDS_P1;SDS_P2;PMS_P1;PMS_P2;Temp;Humidity;BMP_temperature;BMP_pressure;BME280_temperature;BME280_humidity;BME280_pressure;Samples;Min_cycle;Max_cycle;Signal;HPM_P1;HPM_P2
2022/06/19 00:01:21;;;;;;;10.50;5.90;;;;;;;20.57;54.06;99114.25;235577;1203;139444;-54
2022/06/19 00:06:25;;;;;;;9.70;6.10;;;;;;;20.50;54.22;99111.66;235626;1203;139937;-54
2022/06/19 00:11:28;;;;;;;19.40;6.50;;;;;;;20.46;54.29;99109.88;235654;1203;139350;-54
2022/06/19 00:16:32;;;;;;;12.70;6.20;;;;;;;20.42;54.55;99116.78;234862;1203;138532;-56
2022/06/19 00:21:36;;;;;;;12.00;6.10;;;;;;;20.35;54.64;99113.31;235705;1203;139442;-57
2022/06/19 00:26:39;;;;;;;9.10;6.00;;;;;;;20.26;54.70;99112.82;235728;1203;139171;-56
2022/06/19 00:31:42;;;;;;;9.00;6.10;;;;;;;20.18;54.78;99115.05;235678;1202;138884;-57
2022/06/19 00:36:49;;;;;;;10.30;5.80;;;;;;;20.11;55.07;99106.70;235566;1202;138492;-57
2022/06/19 00:41:52;;;;;;;10.60;6.30;;;;;;;20.08;55.28;99107.45;235792;1203;140042;-56
2022/06/19 00:47:08;;;;;;;10.10;5.90;;;;;;;20.14;55.47;99105.02;235846;1203;139795;-55
2022/06/19 00:52:17;;;;;;;8.70;6.00;;;;;;;20.16;55.50;99101.21;235751;1202;139375;-57
2022/06/19 00:57:21;;;;;;;12.00;6.20;;;;;;;20.12;55.52;99095.86;235749;1203;139735;-56
2022/06/19 01:02:25;;;;;;;14.00;7.40;;;;;;;20.06;55.63;99087.84;235823;1202;139896;-56
2022/06/19 01:07:29;;;;;;;11.80;7.10;;;;;;;20.01;55.72;99092.38;235684;1203;139450;-57
2022/06/19 01:12:32;;;;;;;12.80;6.70;;;;;;;19.95;55.82;99087.14;235795;1202;139192;-57
2022/06/19 01:17:36;;;;;;;8.20;6.00;;;;;;;19.94;56.02;99089.23;235754;1202;139421;-56
2022/06/19 01:23:08;;;;;;;13.10;6.20;;;;;;;19.91;56.14;99080.72;235883;1201;138084;-57
2022/06/19 01:33:48;;;;;;;9.40;4.80;;;;;;;19.88;56.41;99064.44;235564;1203;139456;-57
2022/06/19 01:38:53;;;;;;;9.30;5.90;;;;;;;20.05;56.19;99056.39;235603;1202;139959;-55
2022/06/19 01:43:56;;;;;;;13.60;5.30;;;;;;;20.16;56.17;99048.59;235761;1201;139057;-57
2022/06/19 01:48:59;;;;;;;10.10;5.80;;;;;;;20.17;56.05;99050.02;235614;1203;139544;-57
2022/06/19 01:54:06;;;;;;;8.70;6.40;;;;;;;20.11;56.09;99048.41;235823;1203;138895;-57
2022/06/19 01:59:10;;;;;;;10.40;6.40;;;;;;;20.01;56.11;99050.83;235969;1203;138673;-57
2022/06/19 02:04:13;;;;;;;11.70;6.00;;;;;;;19.89;56.17;99050.05;235970;1203;138876;-57
2022/06/19 02:09:21;;;;;;;9.80;6.20;;;;;;;19.81;56.41;99054.14;235818;1201;138852;-57
2022/06/19 02:14:24;;;;;;;8.20;5.90;;;;;;;19.71;56.45;99048.64;235922;1203;139501;-55
2022/06/19 02:19:27;;;;;;;7.90;5.60;;;;;;;19.65;56.66;99039.30;235886;1202;138952;-56
2022/06/19 02:24:30;;;;;;;8.70;5.90;;;;;;;19.67;56.78;99030.54;235660;1203;139747;-57
2022/06/19 02:29:36;;;;;;;15.40;7.20;;;;;;;19.69;56.82;99028.70;235665;1203;139012;-57
2022/06/19 02:34:42;;;;;;;11.60;6.60;;;;;;;19.69;57.05;99025.42;235958;1201;138809;-57
2022/06/19 02:39:59;;;;;;;12.10;6.80;;;;;;;19.71;57.07;99026.35;235734;1202;138871;-57
2022/06/19 02:45:07;;;;;;;14.80;7.50;;;;;;;19.68;57.03;99031.46;235632;1202;139596;-57
2022/06/19 02:50:15;;;;;;;11.80;6.60;;;;;;;19.63;57.02;99031.95;235696;1203;140161;-55
2022/06/19 02:55:18;;;;;;;10.50;6.40;;;;;;;19.61;57.20;99046.11;235850;1202;140240;-56
2022/06/19 03:00:25;;;;;;;10.80;6.90;;;;;;;19.58;57.26;99047.38;235891;1202;142615;-55
2022/06/19 03:05:29;;;;;;;10.80;7.00;;;;;;;19.52;57.24;99046.92;235906;1202;139250;-56
2022/06/19 03:10:32;;;;;;;14.30;6.10;;;;;;;19.47;57.45;99048.45;235858;1202;140548;-56
2022/06/19 03:15:35;;;;;;;8.90;6.20;;;;;;;19.45;57.57;99041.48;235910;1202;140812;-57
2022/06/19 03:20:38;;;;;;;11.00;6.20;;;;;;;19.50;57.57;99050.54;235931;1203;139529;-57
2022/06/19 03:25:41;;;;;;;16.60;6.30;;;;;;;19.54;57.70;99055.31;235750;1202;140198;-57
2022/06/19 03:30:44;;;;;;;12.90;6.20;;;;;;;19.56;57.87;99051.87;234748;1202;138899;-56
2022/06/19 03:35:47;;;;;;;9.70;6.40;;;;;;;19.58;57.94;99046.21;235662;1202;139401;-55
2022/06/19 03:40:50;;;;;;;14.60;6.40;;;;;;;19.60;58.09;99045.21;235985;1202;141607;-57
2022/06/19 03:46:02;;;;;;;10.20;5.90;;;;;;;19.62;58.03;99048.95;236002;1203;138787;-57
2022/06/19 03:51:05;;;;;;;10.70;6.20;;;;;;;19.63;58.20;99045.64;235963;1203;139519;-54
2022/06/19 03:56:12;;;;;;;9.30;5.30;;;;;;;19.67;58.27;99039.38;235949;1203;139975;-53
2022/06/19 04:01:21;;;;;;;9.40;5.60;;;;;;;19.79;58.48;99037.06;235854;1202;140334;-56
2022/06/19 04:06:30;;;;;;;9.60;5.50;;;;;;;19.92;58.39;99040.58;236043;1202;140700;-56
2022/06/19 04:11:33;;;;;;;8.30;5.40;;;;;;;20.08;58.47;99041.70;235012;1201;138651;-54
2022/06/19 04:16:37;;;;;;;11.80;5.20;;;;;;;20.18;58.52;99041.18;236060;1203;138328;-53
2022/06/19 04:21:43;;;;;;;9.80;5.50;;;;;;;20.31;58.60;99042.35;235887;1203;139449;-56
2022/06/19 04:26:46;;;;;;;7.40;4.60;;;;;;;20.46;58.53;99039.40;235764;1203;139595;-54
2022/06/19 04:31:49;;;;;;;8.80;5.10;;;;;;;20.62;58.39;99043.23;235966;1203;139978;-57
2022/06/19 04:36:53;;;;;;;6.80;3.90;;;;;;;20.76;58.25;99040.10;235982;1202;139000;-57
2022/06/19 04:41:56;;;;;;;6.60;2.80;;;;;;;20.92;57.66;99036.80;235953;1203;138958;-56
2022/06/19 04:46:59;;;;;;;4.80;2.60;;;;;;;21.12;56.80;99035.92;236093;1202;138932;-57
2022/06/19 04:52:02;;;;;;;5.20;2.60;;;;;;;21.31;56.40;99022.56;235927;1203;138723;-57
2022/06/19 04:57:05;;;;;;;3.80;2.40;;;;;;;21.48;56.13;99016.58;236006;1203;139620;-56
2022/06/19 05:02:14;;;;;;;4.70;2.30;;;;;;;21.69;55.39;99015.64;235775;1202;139693;-56
2022/06/19 05:07:17;;;;;;;4.50;2.60;;;;;;;21.83;54.86;99014.30;236080;1202;138501;-56
2022/06/19 05:12:20;;;;;;;4.00;2.90;;;;;;;21.95;54.37;99010.59;235993;1202;140714;-57
2022/06/19 05:17:23;;;;;;;4.80;2.90;;;;;;;22.04;54.02;99006.33;235258;1203;139278;-55
2022/06/19 05:22:26;;;;;;;8.40;3.40;;;;;;;22.15;53.95;99009.28;235011;1201;139275;-57
2022/06/19 05:27:29;;;;;;;5.90;2.80;;;;;;;22.25;53.57;99002.56;235882;1202;138998;-57
2022/06/19 05:32:32;;;;;;;6.20;3.10;;;;;;;22.34;53.57;98992.61;235967;1203;138921;-58
2022/06/19 05:37:35;;;;;;;5.60;3.00;;;;;;;22.49;53.31;98993.40;235976;1203;140772;-56
2022/06/19 05:42:38;;;;;;;7.10;3.50;;;;;;;22.56;53.14;98993.35;235888;1201;138491;-56
2022/06/19 05:47:42;;;;;;;5.40;2.90;;;;;;;22.60;53.04;98987.85;235884;1203;140363;-56
2022/06/19 05:52:45;;;;;;;4.20;3.20;;;;;;;22.72;53.00;98989.75;236045;1203;139232;-55
2022/06/19 05:57:48;;;;;;;6.60;3.10;;;;;;;22.83;53.14;98985.40;235296;1203;138499;-56
2022/06/19 06:02:50;;;;;;;3.30;2.50;;;;;;;22.95;53.01;98979.69;236031;1203;138740;-57
2022/06/19 06:07:53;;;;;;;50.90;44.90;;;;;;;23.11;52.94;98970.23;234743;1202;139327;-57
2022/06/19 06:12:56;;;;;;;9.30;3.80;;;;;;;23.23;52.79;98965.66;235984;1203;139498;-57
2022/06/19 06:18:00;;;;;;;4.70;2.60;;;;;;;23.34;52.52;98963.11;235910;1203;139554;-56
2022/06/19 06:23:03;;;;;;;3.60;2.30;;;;;;;23.50;52.11;98966.64;235436;1201;139222;-57
2022/06/19 06:28:06;;;;;;;2.60;2.10;;;;;;;23.62;51.97;98959.77;235414;1203;139336;-58
2022/06/19 06:33:09;;;;;;;2.70;2.20;;;;;;;23.74;51.81;98959.71;235591;1203;139011;-58
2022/06/19 06:38:12;;;;;;;14.20;10.70;;;;;;;23.82;51.74;98950.06;236007;1202;139256;-58
2022/06/19 06:43:15;;;;;;;3.70;2.10;;;;;;;23.96;51.47;98942.23;235852;1202;139944;-55
2022/06/19 06:48:19;;;;;;;4.20;2.10;;;;;;;24.07;51.50;98934.93;235983;1202;139009;-56
2022/06/19 06:53:22;;;;;;;11.30;7.80;;;;;;;24.26;51.30;98932.54;235738;1203;139699;-58
2022/06/19 06:58:25;;;;;;;15.70;12.70;;;;;;;24.39;51.05;98932.48;235872;1203;139743;-57
2022/06/19 07:03:28;;;;;;;3.70;2.00;;;;;;;24.54;50.70;98930.17;235891;1203;139458;-57
2022/06/19 07:08:31;;;;;;;3.40;1.70;;;;;;;24.62;50.47;98917.02;235952;1202;140144;-57
2022/06/19 07:13:38;;;;;;;3.80;2.20;;;;;;;24.82;50.41;98905.31;235871;1203;139305;-55
2022/06/19 07:18:41;;;;;;;5.00;1.60;;;;;;;24.96;50.39;98896.10;235968;1203;139288;-57
2022/06/19 07:23:45;;;;;;;40.40;36.30;;;;;;;25.16;49.97;98907.80;235741;1202;138890;-56
2022/06/19 07:28:48;;;;;;;13.20;10.80;;;;;;;25.30;49.73;98910.77;235940;1202;139730;-54
2022/06/19 07:33:59;;;;;;;3.60;2.70;;;;;;;25.40;49.17;98917.63;235349;1203;139367;-54
2022/06/19 07:39:04;;;;;;;110.60;93.90;;;;;;;25.50;48.67;98914.79;235917;1202;138948;-58
2022/06/19 07:44:07;;;;;;;8.50;5.20;;;;;;;25.59;48.52;98903.31;235871;1203;141236;-57
2022/06/19 07:54:31;;;;;;;17.70;15.70;;;;;;;25.80;47.59;98897.53;235845;1203;139603;-58
2022/06/19 07:59:34;;;;;;;13.30;10.90;;;;;;;25.88;47.81;98899.33;235896;1203;140021;-59
2022/06/19 08:04:37;;;;;;;3.50;2.60;;;;;;;26.07;47.72;98898.08;235851;1203;139240;-56
2022/06/19 08:09:45;;;;;;;3.30;1.70;;;;;;;26.15;47.20;98884.02;235779;1203;139516;-55
2022/06/19 08:14:49;;;;;;;4.50;2.30;;;;;;;26.28;47.12;98881.48;235397;1203;138462;-54
2022/06/19 08:19:52;;;;;;;4.30;2.00;;;;;;;26.35;46.93;98874.65;236077;1203;139357;-57
2022/06/19 08:24:55;;;;;;;3.20;2.00;;;;;;;26.48;46.89;98878.56;235839;1203;140433;-55
2022/06/19 08:29:57;;;;;;;2.50;1.70;;;;;;;26.59;47.17;98880.90;235877;1202;139598;-57
2022/06/19 08:35:00;;;;;;;88.20;63.00;;;;;;;26.68;46.70;98872.13;235970;1203;139665;-57
2022/06/19 08:40:23;;;;;;;10.20;5.70;;;;;;;26.77;46.59;98858.39;235868;1202;139398;-57
2022/06/19 08:45:44;;;;;;;4.80;2.40;;;;;;;26.86;46.41;98862.03;235084;1203;139189;-54
2022/06/19 08:51:14;;;;;;;8.50;3.10;;;;;;;26.92;46.21;98860.59;235409;1203;138886;-57
2022/06/19 08:56:47;;;;;;;3.80;2.40;;;;;;;27.03;46.05;98865.54;235671;1203;138720;-57
2022/06/19 09:02:03;;;;;;;60.80;54.80;;;;;;;27.12;45.89;98863.11;235754;1202;139625;-57
2022/06/19 09:07:17;;;;;;;5.50;2.60;;;;;;;27.18;45.56;98860.15;235856;1203;140264;-56
2022/06/19 09:12:23;;;;;;;8.50;2.10;;;;;;;27.27;45.44;98858.41;235831;1203;139243;-56
2022/06/19 09:17:46;;;;;;;23.00;11.10;;;;;;;27.47;45.28;98865.63;233998;1203;139858;-56
2022/06/19 09:23:04;;;;;;;10.70;4.10;;;;;;;27.58;45.08;98869.73;235893;1203;139495;-54
2022/06/19 09:28:19;;;;;;;5.70;2.20;;;;;;;27.62;44.72;98868.80;235774;1203;139263;-54
2022/06/19 09:33:47;;;;;;;6.20;2.10;;;;;;;27.76;44.35;98864.48;235706;1203;139945;-55
2022/06/19 09:39:07;;;;;;;3.00;1.70;;;;;;;27.90;44.15;98857.71;235598;1204;140386;-56
2022/06/19 09:44:24;;;;;;;7.90;1.70;;;;;;;28.05;43.69;98857.05;235622;1203;140065;-56
2022/06/19 09:49:43;;;;;;;7.40;1.50;;;;;;;28.21;43.43;98839.29;235632;1202;138948;-56
2022/06/19 09:55:03;;;;;;;3.00;1.50;;;;;;;28.39;43.06;98826.23;235727;1203;140098;-55
2022/06/19 10:00:09;;;;;;;113.40;71.70;;;;;;;28.56;42.70;98820.38;235691;1203;139674;-54
2022/06/19 10:05:18;;;;;;;10.20;7.60;;;;;;;28.73;42.33;98816.32;235775;1203;140361;-55
2022/06/19 10:10:43;;;;;;;9.70;4.60;;;;;;;28.86;42.05;98798.20;235757;1203;139285;-55
2022/06/19 10:15:46;;;;;;;6.00;4.30;;;;;;;29.09;42.14;98795.91;235708;1203;139239;-55
2022/06/19 10:21:07;;;;;;;3.20;1.80;;;;;;;29.28;41.66;98794.05;235658;1203;139600;-55
2022/06/19 10:26:30;;;;;;;6.90;1.70;;;;;;;29.45;41.01;98787.00;235756;1204;140047;-55
2022/06/19 10:31:45;;;;;;;5.50;1.60;;;;;;;29.62;40.92;98780.53;235640;1203;138717;-57
2022/06/19 10:36:58;;;;;;;6.10;2.00;;;;;;;29.81;40.48;98769.21;235662;1203;139160;-57
2022/06/19 10:42:07;;;;;;;3.00;1.30;;;;;;;29.99;40.28;98764.66;235753;1203;139711;-57
2022/06/19 10:47:25;;;;;;;4.00;1.40;;;;;;;30.16;40.24;98768.55;235778;1202;139336;-56
2022/06/19 10:52:50;;;;;;;4.70;1.80;;;;;;;30.31;39.67;98774.14;235809;1204;139783;-55
2022/06/19 10:58:09;;;;;;;6.60;2.10;;;;;;;30.43;39.44;98761.46;235681;1203;139010;-55
2022/06/19 11:09:32;;;;;;;6.50;2.00;;;;;;;30.64;39.25;98748.48;235644;1203;139374;-56
2022/06/19 11:15:03;;;;;;;12.50;2.20;;;;;;;30.84;39.21;98740.05;235689;1204;140749;-56
2022/06/19 11:20:27;;;;;;;6.30;1.90;;;;;;;30.87;38.53;98739.73;235745;1202;139576;-57
2022/06/19 11:25:39;;;;;;;8.00;4.40;;;;;;;30.96;38.80;98733.54;235653;1203;139168;-56
2022/06/19 11:30:54;;;;;;;10.40;3.50;;;;;;;31.17;38.53;98728.30;235530;1204;138553;-57
2022/06/19 11:35:59;;;;;;;;;;;;;;;31.34;38.21;98708.73;235718;1202;141540;-57
2022/06/19 11:41:15;;;;;;;5.30;2.20;;;;;;;31.44;37.92;98709.48;235805;1204;126831;-55
2022/06/19 11:46:25;;;;;;;5.90;2.60;;;;;;;31.56;37.61;98709.60;235717;1202;138418;-55
2022/06/19 11:51:30;;;;;;;5.70;1.90;;;;;;;31.63;37.20;98705.41;235546;1204;139476;-57
2022/06/19 11:56:36;;;;;;;5.30;1.90;;;;;;;31.72;37.16;98702.77;235601;1203;138542;-57
2022/06/19 12:01:43;;;;;;;7.00;1.90;;;;;;;31.79;36.88;98702.81;235636;1204;139246;-57
2022/06/19 12:06:58;;;;;;;8.00;2.00;;;;;;;31.90;36.53;98692.73;235555;1203;140457;-57
2022/06/19 12:12:06;;;;;;;10.50;2.00;;;;;;;32.03;36.32;98691.48;235760;1203;138766;-57
2022/06/19 12:17:18;;;;;;;8.90;1.90;;;;;;;32.15;36.19;98680.02;235773;1203;139466;-57
2022/06/19 12:22:32;;;;;;;8.60;1.90;;;;;;;32.31;35.81;98671.73;235785;1204;139262;-57
2022/06/19 12:27:43;;;;;;;5.30;1.80;;;;;;;32.39;35.76;98666.17;235583;1203;138983;-58
2022/06/19 12:32:49;;;;;;;34.80;27.50;;;;;;;32.54;35.76;98652.54;235592;1203;139407;-56
2022/06/19 12:37:52;;;;;;;7.80;3.70;;;;;;;32.71;35.00;98649.70;235696;1202;138671;-57
2022/06/19 12:43:02;;;;;;;6.20;3.20;;;;;;;32.91;34.87;98654.64;235654;1203;138204;-58
2022/06/19 12:48:30;;;;;;;6.20;2.20;;;;;;;33.10;34.89;98645.24;235780;1203;140263;-58
2022/06/19 12:53:36;;;;;;;12.90;8.60;;;;;;;33.20;34.37;98637.41;235003;1203;138992;-58
2022/06/19 12:59:05;;;;;;;6.30;2.00;;;;;;;33.32;33.63;98628.88;235339;1203;139581;-57
2022/06/19 13:04:13;;;;;;;8.30;4.20;;;;;;;33.47;33.67;98624.20;235729;1203;138788;-57
2022/06/19 13:09:44;;;;;;;7.40;2.80;;;;;;;33.60;33.42;98616.90;235591;1203;138683;-58
2022/06/19 13:15:24;;;;;;;172.20;153.60;;;;;;;33.67;33.41;98607.44;235574;1202;139075;-58
2022/06/19 13:20:50;;;;;;;9.40;3.40;;;;;;;33.86;33.33;98600.23;235641;1203;139191;-57
2022/06/19 13:27:10;;;;;;;10.60;2.30;;;;;;;34.09;32.86;98597.07;235673;1202;139320;-56
2022/06/19 13:31:46;;;;;;;10.00;2.10;;;;;;;34.29;32.63;98589.14;235638;1203;139269;-57
2022/06/19 13:37:02;;;;;;;6.50;1.70;;;;;;;34.36;32.24;98581.27;235724;1203;139107;-58
2022/06/19 13:42:42;;;;;;;8.00;2.10;;;;;;;34.54;32.19;98563.14;235620;1202;139208;-58
2022/06/19 13:47:50;;;;;;;6.30;1.80;;;;;;;34.75;31.99;98552.17;235676;1201;138609;-57
2022/06/19 13:53:05;;;;;;;7.60;1.70;;;;;;;34.95;31.32;98551.71;235752;1202;138843;-56
2022/06/19 13:58:41;;;;;;;6.70;1.70;;;;;;;35.21;31.40;98549.96;235672;1202;139853;-57
2022/06/19 14:09:55;;;;;;;50.10;38.70;;;;;;;35.52;30.27;98517.23;235644;1201;138648;-58
2022/06/19 14:15:10;;;;;;;10.30;3.10;;;;;;;35.59;30.25;98507.68;235609;1203;140468;-58
2022/06/19 14:20:16;;;;;;;8.30;2.00;;;;;;;35.66;29.73;98506.54;234572;1202;139402;-58
2022/06/19 14:25:27;;;;;;;10.70;2.00;;;;;;;35.63;29.10;98499.05;235595;1202;138681;-58
2022/06/19 14:30:34;;;;;;;8.70;2.30;;;;;;;35.56;28.55;98499.02;235698;1202;139900;-58
2022/06/19 14:35:37;;;;;;;7.40;1.90;;;;;;;35.37;28.43;98481.71;235666;1203;139546;-56
2022/06/19 14:40:59;;;;;;;8.00;2.20;;;;;;;35.24;28.50;98471.73;235826;1203;138867;-59
2022/06/19 14:46:02;;;;;;;7.40;2.00;;;;;;;35.03;28.23;98470.52;235611;1203;141494;-58
2022/06/19 14:51:53;;;;;;;44.20;38.10;;;;;;;34.80;27.81;98472.80;235638;1202;140066;-58
2022/06/19 14:57:11;;;;;;;7.40;2.50;;;;;;;34.54;28.03;98461.65;235666;1203;140508;-58
2022/06/19 15:02:19;;;;;;;6.50;2.10;;;;;;;34.33;28.12;98464.67;235766;1203;139766;-58
2022/06/19 15:07:24;;;;;;;7.50;2.30;;;;;;;34.17;27.89;98464.00;235633;1203;138622;-59
2022/06/19 15:12:29;;;;;;;9.10;2.40;;;;;;;33.99;27.85;98453.31;235617;1203;139871;-58
2022/06/19 15:17:44;;;;;;;7.50;2.60;;;;;;;33.82;27.89;98440.44;235731;1203;138801;-59
2022/06/19 15:23:31;;;;;;;16.50;7.80;;;;;;;33.71;28.37;98440.83;235720;1202;139250;-58
2022/06/19 15:28:49;;;;;;;11.90;2.60;;;;;;;33.56;28.35;98432.70;235882;1202;140700;-58
2022/06/19 15:33:56;;;;;;;6.70;2.00;;;;;;;33.38;28.12;98423.02;235582;1202;139616;-58
2022/06/19 15:39:08;;;;;;;19.70;12.60;;;;;;;33.23;28.45;98430.42;235581;1203;138836;-58
2022/06/19 15:44:36;;;;;;;11.10;3.20;;;;;;;33.07;28.12;98417.32;235647;1201;139817;-57
2022/06/19 15:49:44;;;;;;;7.30;2.50;;;;;;;32.93;28.38;98410.19;235690;1202;139255;-57
2022/06/19 15:54:50;;;;;;;8.60;2.30;;;;;;;32.84;28.05;98403.52;235695;1203;141838;-58
2022/06/19 16:00:01;;;;;;;6.90;2.00;;;;;;;32.74;28.09;98392.27;235435;1203;139483;-58
2022/06/19 16:05:24;;;;;;;5.30;2.00;;;;;;;32.57;28.17;98381.60;235934;1203;138818;-58
2022/06/19 16:10:34;;;;;;;6.10;2.30;;;;;;;32.41;28.29;98379.60;234382;1202;139293;-54
2022/06/19 16:15:38;;;;;;;10.60;2.40;;;;;;;32.19;28.35;98379.48;235711;1202;139123;-57
2022/06/19 16:20:50;;;;;;;;;;;;;;;32.10;28.51;98380.64;235752;1202;141129;-58
2022/06/19 16:25:54;;;;;;;6.80;2.10;;;;;;;31.83;28.52;98379.45;235863;1203;125985;-57
2022/06/19 16:31:15;;;;;;;7.80;2.40;;;;;;;31.75;28.49;98378.11;235812;1202;139134;-58
2022/06/19 16:47:11;;;;;;;11.60;2.20;;;;;;;31.59;29.02;98363.73;235297;1203;139183;-55
2022/06/19 16:52:19;;;;;;;8.40;1.90;;;;;;;31.57;28.72;98352.27;236508;1202;138385;-56
2022/06/19 16:57:34;;;;;;;10.20;2.30;;;;;;;31.57;28.51;98353.35;235997;1201;138773;-58
2022/06/19 17:02:50;;;;;;;10.20;2.30;;;;;;;31.56;28.58;98351.90;235790;1201;140948;-57
2022/06/19 17:13:24;;;;;;;6.30;2.80;;;;;;;31.43;28.34;98353.53;235555;1203;139487;-59
2022/06/19 17:18:38;;;;;;;13.50;2.50;;;;;;;31.40;28.35;98347.25;235741;1202;139214;-55
2022/06/19 17:23:41;;;;;;;;;;;;;;;31.31;28.34;98349.79;235771;1203;139458;-58
2022/06/19 17:28:47;;;;;;;10.70;2.20;;;;;;;31.23;28.47;98353.18;236030;1203;126409;-57
2022/06/19 17:33:51;;;;;;;8.20;2.00;;;;;;;31.14;28.36;98353.64;235855;1202;139233;-58
2022/06/19 17:39:00;;;;;;;45.90;41.00;;;;;;;31.07;28.51;98360.14;235750;1202;138378;-57
2022/06/19 17:44:07;;;;;;;8.10;2.50;;;;;;;31.01;28.53;98359.45;236006;1203;139235;-59
2022/06/19 17:49:31;;;;;;;11.20;2.50;;;;;;;31.00;28.57;98363.23;236290;1202;139378;-59
2022/06/19 17:54:37;;;;;;;8.70;2.30;;;;;;;30.96;28.66;98369.95;236438;1202;138752;-57
2022/06/19 18:00:01;;;;;;;9.90;2.50;;;;;;;30.88;28.78;98367.38;236365;1201;138728;-58
2022/06/19 18:05:36;;;;;;;9.10;2.50;;;;;;;30.82;28.68;98370.51;236417;1203;139570;-56
2022/06/19 18:10:45;;;;;;;20.20;17.20;;;;;;;30.77;28.64;98373.80;236559;1201;138590;-57
2022/06/19 18:21:22;;;;;;;186.70;142.80;;;;;;;30.71;29.15;98382.66;236418;1202;139591;-58
2022/06/19 18:27:05;;;;;;;10.80;6.50;;;;;;;30.69;29.45;98377.16;234054;1201;138916;-57
2022/06/19 19:54:51;;;;;;;32.40;24.60;;;;;;;26.89;35.60;98379.96;229489;1232;635712;-53
2022/06/19 19:59:55;;;;;;;14.20;4.60;;;;;;;26.75;35.65;98382.28;234445;1220;92324;-55
2022/06/19 20:04:58;;;;;;;49.70;34.80;;;;;;;26.74;36.06;98382.91;234314;1221;92061;-53
2022/06/19 20:15:25;;;;;;;11.90;4.00;;;;;;;26.68;36.93;98394.58;233172;1223;139637;-57
2022/06/19 20:20:32;;;;;;;8.60;3.60;;;;;;;26.71;36.87;98392.66;233245;1223;138348;-56
2022/06/19 20:25:37;;;;;;;11.00;4.10;;;;;;;26.78;36.89;98390.17;233618;1222;138179;-56
2022/06/19 20:30:44;;;;;;;15.70;4.50;;;;;;;26.83;37.11;98392.09;233672;1223;139329;-55
2022/06/19 20:35:47;;;;;;;10.90;3.90;;;;;;;26.88;37.30;98393.16;233467;1223;138586;-55
2022/06/19 20:40:55;;;;;;;10.30;4.00;;;;;;;26.95;37.13;98396.95;233414;1223;139072;-56
2022/06/19 20:45:58;;;;;;;11.50;3.60;;;;;;;26.99;37.41;98392.23;233599;1223;139797;-56
2022/06/19 20:51:01;;;;;;;10.90;3.70;;;;;;;26.93;37.62;98399.77;233578;1223;139765;-56
2022/06/19 20:56:04;;;;;;;9.60;3.80;;;;;;;26.82;37.92;98402.98;233707;1221;138176;-56
2022/06/19 21:01:08;;;;;;;14.30;4.00;;;;;;;26.68;38.23;98405.12;232843;1223;138162;-54
2022/06/19 21:06:14;;;;;;;13.60;3.80;;;;;;;26.54;38.33;98399.27;234003;1220;138436;-57
2022/06/19 21:11:17;;;;;;;9.60;4.10;;;;;;;26.55;37.91;98402.33;234182;1219;138650;-57
2022/06/19 21:16:21;;;;;;;10.70;3.10;;;;;;;26.61;37.73;98409.33;234081;1220;138881;-56
2022/06/19 21:21:27;;;;;;;9.50;3.20;;;;;;;26.68;37.34;98410.91;234073;1220;138207;-58
2022/06/19 21:26:31;;;;;;;7.70;3.20;;;;;;;26.75;37.33;98417.35;234010;1220;138203;-57
2022/06/19 21:31:35;;;;;;;10.60;3.20;;;;;;;26.68;37.52;98420.73;234166;1220;137976;-57
2022/06/19 21:36:43;;;;;;;8.10;3.10;;;;;;;26.62;37.76;98410.88;234081;1220;138584;-56
2022/06/19 21:41:49;;;;;;;5.10;2.80;;;;;;;26.52;37.55;98412.33;234132;1220;139716;-57
2022/06/19 21:46:52;;;;;;;9.50;2.80;;;;;;;26.58;37.14;98415.55;232517;1220;137607;-56
2022/06/19 21:51:57;;;;;;;7.20;2.90;;;;;;;26.59;37.12;98422.69;231696;1221;138034;-56
2022/06/19 21:57:00;;;;;;;5.70;2.80;;;;;;;26.46;37.46;98409.27;233967;1220;138880;-57
2022/06/19 22:02:04;;;;;;;8.90;2.90;;;;;;;26.27;37.64;98414.17;234020;1220;137812;-58
2022/06/19 22:07:11;;;;;;;16.40;3.30;;;;;;;26.05;38.01;98413.02;234115;1218;138513;-56
2022/06/19 22:12:17;;;;;;;10.00;3.20;;;;;;;25.86;38.53;98420.94;234123;1220;138416;-57
2022/06/19 22:17:20;;;;;;;6.80;2.90;;;;;;;25.63;38.65;98418.27;234048;1218;140798;-56
2022/06/19 22:22:33;;;;;;;5.10;3.30;;;;;;;25.45;38.96;98412.84;234634;1220;107459;-56
2022/06/19 22:27:38;;;;;;;9.50;3.00;;;;;;;25.29;39.41;98413.37;234514;1220;92969;-57
2022/06/19 22:32:41;;;;;;;8.50;3.00;;;;;;;25.14;39.64;98401.73;234395;1220;108664;-55
2022/06/19 22:37:45;;;;;;;9.30;3.70;;;;;;;25.02;39.97;98406.66;234216;1220;107657;-56
2022/06/19 22:42:52;;;;;;;;;;;;;;;24.87;40.38;98405.44;234232;1220;137940;-57
2022/06/19 22:47:55;;;;;;;9.50;3.20;;;;;;;24.70;40.59;98405.39;234210;1220;124949;-58
2022/06/19 22:52:59;;;;;;;10.00;3.00;;;;;;;24.57;40.77;98414.44;234082;1220;138420;-57
2022/06/19 22:58:10;;;;;;;5.00;2.90;;;;;;;24.47;41.18;98412.08;233414;1220;139076;-56
2022/06/19 23:03:15;;;;;;;7.60;2.80;;;;;;;24.38;41.42;98417.23;234061;1220;138563;-57
2022/06/19 23:08:30;;;;;;;7.30;3.10;;;;;;;24.28;41.72;98410.00;233402;1220;140763;-56
2022/06/19 23:13:33;;;;;;;5.20;3.00;;;;;;;24.21;41.93;98412.56;234074;1218;138740;-55
2022/06/19 23:18:36;;;;;;;9.40;3.40;;;;;;;24.15;42.19;98420.80;234001;1219;139229;-57
2022/06/19 23:23:39;;;;;;;5.90;3.10;;;;;;;24.05;42.41;98421.10;234224;1218;138091;-56
2022/06/19 23:28:51;;;;;;;11.40;3.20;;;;;;;23.96;42.67;98413.00;234022;1219;138435;-57
2022/06/19 23:33:54;;;;;;;9.10;3.60;;;;;;;23.86;42.94;98404.09;234058;1220;138549;-55
2022/06/19 23:38:59;;;;;;;9.10;3.60;;;;;;;23.79;43.20;98400.92;234126;1220;138879;-56
2022/06/19 23:44:02;;;;;;;;;;;;;;;23.69;43.56;98397.44;234108;1220;139112;-57
2022/06/19 23:49:10;;;;;;;11.30;3.90;;;;;;;23.58;43.87;98400.76;234038;1220;125156;-56
2022/06/19 23:54:13;;;;;;;8.00;3.60;;;;;;;23.49;44.17;98399.16;234021;1220;138414;-57
2022/06/19 23:59:17;;;;;;;10.70;4.00;;;;;;;23.43;44.69;98395.30;234336;1215;138984;-57
